Fairport, Missouri
Current Conditions -  °F | °C
As of 3:53 AM on Thursday 23 Oct 2014 (Local Time) from KSTJ Reporting Station
Light Rain Light Rain  
Wind Chill: 14°   Ceiling: 8500
Heat Index: 14°   Visibility: 5mi
Dew Point: 14°   Wind: 10mph
Humidity: 97%   Direction: 180°S
Pressure: 30.1"   Gusts: NA
Location:  39.99°N, 94.35°W
Report Text: KSTJ 230853Z AUTO 18009KT 5SM -RA BR OVC085 14/14 A3010 RMK AO2 SLP187 P0015 60030 T01440139 50005
Loading
Personal Weather Stations






























Interactive Weather Map
Tropical Storm Tracking
New forecast layout! Learn more

10-Day Weather Forecast

Advertisements
Track Severe Weather on mobile